Time;durP1;ratioP1;P1;durP2;ratioP2;P2;SDS_P1;SDS_P2;PMS_P1;PMS_P2;Temp;Humidity;BMP_temperature;BMP_pressure;BME280_temperature;BME280_humidity;BME280_pressure;Samples;Min_cycle;Max_cycle;Signal;HPM_P1;HPM_P2
2021/03/05 00:01:13;;;;;;;10.90;5.20;;;;;;;;;;5079818;28;20467;-86
2021/03/05 00:03:39;;;;;;;8.63;4.67;;;;;;;;;;5079565;28;20452;-86
2021/03/05 00:06:05;;;;;;;9.20;5.00;;;;;;;;;;5081503;28;20404;-85
2021/03/05 00:08:31;;;;;;;6.83;4.43;;;;;;;;;;5079386;28;20438;-85
2021/03/05 00:10:57;;;;;;;7.90;5.03;;;;;;;;;;5080315;28;20403;-84
2021/03/05 00:13:23;;;;;;;7.07;4.90;;;;;;;;;;5078177;28;20455;-85
2021/03/05 00:15:49;;;;;;;7.77;4.93;;;;;;;;;;5080545;28;20476;-86
2021/03/05 00:18:16;;;;;;;7.37;5.10;;;;;;;;;;5069838;28;20963;-85
2021/03/05 00:20:43;;;;;;;7.07;4.70;;;;;;;;;;5060322;28;20983;-84
2021/03/05 00:23:09;;;;;;;6.90;4.60;;;;;;;;;;5069326;28;20447;-85
2021/03/05 00:25:35;;;;;;;7.90;4.73;;;;;;;;;;5079756;28;20406;-85
2021/03/05 00:28:01;;;;;;;7.07;4.40;;;;;;;;;;5078836;28;20433;-85
2021/03/05 00:30:27;;;;;;;8.10;5.30;;;;;;;;;;5061415;28;20445;-85
2021/03/05 00:32:53;;;;;;;7.23;4.27;;;;;;;;;;5078800;28;20478;-85
2021/03/05 00:35:20;;;;;;;7.30;4.70;;;;;;;;;;5079748;28;20405;-85
2021/03/05 00:37:47;;;;;;;5.70;4.03;;;;;;;;;;5077630;28;20430;-86
2021/03/05 00:40:15;;;;;;;6.23;4.80;;;;;;;;;;5079575;28;20457;-86
2021/03/05 00:42:42;;;;;;;7.30;4.30;;;;;;;;;;5079291;28;20511;-85
2021/03/05 00:45:09;;;;;;;7.50;5.27;;;;;;;;;;5079868;28;20545;-85
2021/03/05 00:47:35;;;;;;;7.93;4.50;;;;;;;;;;5079373;28;21344;-85
2021/03/05 00:50:01;;;;;;;8.93;4.30;;;;;;;;;;5079298;28;20458;-85
2021/03/05 00:52:27;;;;;;;5.60;4.10;;;;;;;;;;5079520;28;20464;-86
2021/03/05 00:54:53;;;;;;;6.77;4.23;;;;;;;;;;5079536;28;20411;-85
2021/03/05 00:57:19;;;;;;;6.20;3.80;;;;;;;;;;5069222;28;20399;-88
2021/03/05 00:59:45;;;;;;;4.30;3.30;;;;;;;;;;5100061;28;20463;-86
2021/03/05 01:02:11;;;;;;;4.20;3.17;;;;;;;;;;5101247;28;20427;-87
2021/03/05 01:04:37;;;;;;;6.53;4.83;;;;;;;;;;5078282;28;20467;-84
2021/03/05 01:07:03;;;;;;;6.13;4.00;;;;;;;;;;5091817;28;20406;-86
2021/03/05 01:09:29;;;;;;;5.63;4.17;;;;;;;;;;5072804;28;20480;-84
2021/03/05 01:11:55;;;;;;;6.40;4.27;;;;;;;;;;5083229;28;20787;-86
2021/03/05 01:14:21;;;;;;;9.70;5.10;;;;;;;;;;5079887;28;20553;-86
2021/03/05 01:16:47;;;;;;;5.57;4.20;;;;;;;;;;5080760;28;20396;-86
2021/03/05 01:19:14;;;;;;;6.00;5.27;;;;;;;;;;5079147;28;20919;-86
2021/03/05 01:21:40;;;;;;;6.40;4.23;;;;;;;;;;5061575;28;20465;-86
2021/03/05 01:24:07;;;;;;;6.30;3.70;;;;;;;;;;5079141;28;20423;-86
2021/03/05 01:26:33;;;;;;;8.03;5.13;;;;;;;;;;5080041;28;20404;-86
2021/03/05 01:28:59;;;;;;;11.67;5.10;;;;;;;;;;5061311;28;20483;-86
2021/03/05 01:31:25;;;;;;;5.23;3.87;;;;;;;;;;5061317;28;20443;-86
2021/03/05 01:33:51;;;;;;;7.80;4.33;;;;;;;;;;5079357;28;20459;-86
2021/03/05 01:36:17;;;;;;;7.57;4.63;;;;;;;;;;5079931;28;20410;-86
2021/03/05 01:38:43;;;;;;;8.00;4.50;;;;;;;;;;5078701;28;20494;-86
2021/03/05 01:41:09;;;;;;;8.80;4.97;;;;;;;;;;5079382;28;20942;-85
2021/03/05 01:43:37;;;;;;;6.77;4.40;;;;;;;;;;5077897;28;20539;-86
2021/03/05 01:46:03;;;;;;;10.43;4.30;;;;;;;;;;5079759;28;20418;-86
2021/03/05 01:48:30;;;;;;;7.50;4.80;;;;;;;;;;5078582;28;20419;-85
2021/03/05 01:51:07;;;;;;;14.70;5.00;;;;;;;;;;5079308;28;20404;-85
2021/03/05 01:53:34;;;;;;;6.90;4.87;;;;;;;;;;5078208;28;20451;-85
2021/03/05 01:56:00;;;;;;;4.83;4.07;;;;;;;;;;5079001;28;20442;-85
2021/03/05 01:58:26;;;;;;;7.07;4.80;;;;;;;;;;5077450;28;20459;-86
2021/03/05 02:00:54;;;;;;;6.97;3.50;;;;;;;;;;5060697;28;20808;-86
2021/03/05 02:03:20;;;;;;;6.60;3.70;;;;;;;;;;5077548;28;20806;-86
2021/03/05 02:05:46;;;;;;;6.23;4.07;;;;;;;;;;5061327;28;20926;-86
2021/03/05 02:08:13;;;;;;;5.20;3.90;;;;;;;;;;5078485;28;20422;-86
2021/03/05 02:10:39;;;;;;;6.97;3.80;;;;;;;;;;5078727;28;20487;-85
2021/03/05 02:13:05;;;;;;;7.00;4.50;;;;;;;;;;5069711;28;20821;-85
2021/03/05 02:15:36;;;;;;;6.70;3.40;;;;;;;;;;5078801;28;20799;-86
2021/03/05 02:18:08;;;;;;;6.60;4.23;;;;;;;;;;5077845;28;20481;-85
2021/03/05 02:20:53;;;;;;;6.40;4.50;;;;;;;;;;5078320;28;20446;-84
2021/03/05 02:23:19;;;;;;;7.47;4.20;;;;;;;;;;5076030;28;20443;-85
2021/03/05 02:26:00;;;;;;;5.47;4.53;;;;;;;;;;5077225;28;20429;-84
2021/03/05 02:28:34;;;;;;;6.80;4.80;;;;;;;;;;5075315;28;20446;-86
2021/03/05 02:31:09;;;;;;;8.10;4.90;;;;;;;;;;5077733;28;20397;-84
2021/03/05 02:33:45;;;;;;;8.30;5.10;;;;;;;;;;5077342;28;20452;-85
2021/03/05 02:36:14;;;;;;;4.87;3.87;;;;;;;;;;5076859;28;20878;-86
2021/03/05 02:38:41;;;;;;;7.10;5.10;;;;;;;;;;5071813;28;20441;-85
2021/03/05 02:41:07;;;;;;;5.73;4.23;;;;;;;;;;5067400;28;20451;-85
2021/03/05 02:43:35;;;;;;;6.87;4.53;;;;;;;;;;5074505;28;20853;-85
2021/03/05 02:46:02;;;;;;;6.67;5.20;;;;;;;;;;5076346;28;20485;-85
2021/03/05 02:48:31;;;;;;;8.27;4.87;;;;;;;;;;5075656;28;20491;-87
2021/03/05 02:51:01;;;;;;;10.47;5.00;;;;;;;;;;5078176;28;20407;-85
2021/03/05 02:53:28;;;;;;;5.30;4.30;;;;;;;;;;5058064;28;20447;-84
2021/03/05 02:55:58;;;;;;;7.43;4.57;;;;;;;;;;5075869;28;20427;-85
2021/03/05 02:58:25;;;;;;;7.43;4.07;;;;;;;;;;5076265;28;20415;-86
2021/03/05 03:00:52;;;;;;;6.00;4.23;;;;;;;;;;5075505;28;20465;-85
2021/03/05 03:03:20;;;;;;;6.70;4.60;;;;;;;;;;5058403;28;20435;-85
2021/03/05 03:05:47;;;;;;;8.40;5.57;;;;;;;;;;5078981;28;20424;-85
2021/03/05 03:08:13;;;;;;;7.50;4.80;;;;;;;;;;5078959;28;20404;-87
2021/03/05 03:10:40;;;;;;;7.07;4.67;;;;;;;;;;5093662;28;20424;-87
2021/03/05 03:13:06;;;;;;;7.97;4.87;;;;;;;;;;5086776;28;20420;-88
2021/03/05 03:15:33;;;;;;;6.40;4.87;;;;;;;;;;5075347;28;20424;-86
2021/03/05 03:18:00;;;;;;;6.70;5.37;;;;;;;;;;5092021;28;20445;-84
2021/03/05 03:20:27;;;;;;;7.93;5.00;;;;;;;;;;5081240;28;20463;-85
2021/03/05 03:22:53;;;;;;;8.00;5.87;;;;;;;;;;5076728;28;20518;-85
2021/03/05 03:25:19;;;;;;;8.33;5.63;;;;;;;;;;5075299;28;20435;-84
2021/03/05 03:27:45;;;;;;;6.30;5.10;;;;;;;;;;5083670;28;20398;-85
2021/03/05 03:30:13;;;;;;;9.00;5.83;;;;;;;;;;5087484;28;20423;-84
2021/03/05 03:32:39;;;;;;;9.60;6.20;;;;;;;;;;5094688;28;20415;-86
2021/03/05 03:35:06;;;;;;;7.67;5.33;;;;;;;;;;5097752;28;20422;-85
2021/03/05 03:37:33;;;;;;;10.67;5.90;;;;;;;;;;5097980;28;20471;-85
2021/03/05 03:40:00;;;;;;;10.20;6.27;;;;;;;;;;5086096;28;20452;-85
2021/03/05 03:42:26;;;;;;;7.33;5.70;;;;;;;;;;5062657;28;20449;-86
2021/03/05 03:44:52;;;;;;;8.27;5.37;;;;;;;;;;5077672;28;20485;-86
2021/03/05 03:47:21;;;;;;;6.30;5.40;;;;;;;;;;5077294;28;20402;-86
2021/03/05 03:49:50;;;;;;;13.13;5.73;;;;;;;;;;5075496;28;20426;-86
2021/03/05 03:52:37;;;;;;;8.33;5.10;;;;;;;;;;5077730;28;20427;-86
2021/03/05 03:55:04;;;;;;;7.27;5.30;;;;;;;;;;5076545;28;20954;-86
2021/03/05 03:57:30;;;;;;;9.23;4.77;;;;;;;;;;5077029;28;20497;-86
2021/03/05 03:59:57;;;;;;;9.37;6.10;;;;;;;;;;5075822;28;20881;-86
2021/03/05 04:02:29;;;;;;;5.93;4.60;;;;;;;;;;5076301;28;20430;-86
2021/03/05 04:04:56;;;;;;;8.90;5.37;;;;;;;;;;5075889;28;20427;-85
2021/03/05 04:07:22;;;;;;;6.60;4.77;;;;;;;;;;5076831;28;20411;-85
2021/03/05 04:09:48;;;;;;;8.57;5.20;;;;;;;;;;5075458;28;20431;-86
2021/03/05 04:12:16;;;;;;;7.67;4.70;;;;;;;;;;5054932;28;20972;-86
2021/03/05 04:14:42;;;;;;;7.63;5.00;;;;;;;;;;5061246;28;20438;-87
2021/03/05 04:17:08;;;;;;;8.13;5.33;;;;;;;;;;5074530;28;20454;-85
2021/03/05 04:19:34;;;;;;;6.00;4.17;;;;;;;;;;5075181;28;20474;-84
2021/03/05 04:22:00;;;;;;;6.07;4.07;;;;;;;;;;5074372;28;20418;-85
2021/03/05 04:24:26;;;;;;;12.93;5.83;;;;;;;;;;5073634;28;20424;-85
2021/03/05 04:26:52;;;;;;;7.17;4.90;;;;;;;;;;5074102;28;20480;-84
2021/03/05 04:29:18;;;;;;;7.30;4.60;;;;;;;;;;5073016;28;20509;-85
2021/03/05 04:31:44;;;;;;;6.40;4.47;;;;;;;;;;5073866;28;20396;-85
2021/03/05 04:34:10;;;;;;;5.97;4.40;;;;;;;;;;5074571;28;20400;-84
2021/03/05 04:36:37;;;;;;;5.40;3.73;;;;;;;;;;5074917;28;20470;-85
2021/03/05 04:39:03;;;;;;;8.50;4.90;;;;;;;;;;5073732;28;20766;-85
2021/03/05 04:41:29;;;;;;;7.40;4.73;;;;;;;;;;5074546;28;20462;-84
2021/03/05 04:43:57;;;;;;;5.60;4.40;;;;;;;;;;5077580;28;20502;-84
2021/03/05 04:46:25;;;;;;;9.50;5.03;;;;;;;;;;5068633;28;20428;-84
2021/03/05 04:48:51;;;;;;;8.20;4.90;;;;;;;;;;5077415;28;20521;-84
2021/03/05 04:51:17;;;;;;;7.00;4.60;;;;;;;;;;5077950;28;20463;-84
2021/03/05 04:53:43;;;;;;;9.93;5.43;;;;;;;;;;5077966;28;20437;-84
2021/03/05 04:56:09;;;;;;;6.33;4.30;;;;;;;;;;5060824;28;20431;-85
2021/03/05 04:58:35;;;;;;;7.33;4.50;;;;;;;;;;5058202;28;20405;-85
2021/03/05 05:01:01;;;;;;;5.97;4.50;;;;;;;;;;5073656;28;20989;-84
2021/03/05 05:03:27;;;;;;;9.07;5.23;;;;;;;;;;5077767;28;20425;-84
2021/03/05 05:05:53;;;;;;;6.10;4.13;;;;;;;;;;5077395;28;20425;-84
2021/03/05 05:08:19;;;;;;;8.70;4.90;;;;;;;;;;5078061;28;20406;-84
2021/03/05 05:10:45;;;;;;;5.77;4.13;;;;;;;;;;5077498;28;20431;-84
2021/03/05 05:13:11;;;;;;;6.20;4.30;;;;;;;;;;5064176;28;20436;-84
2021/03/05 05:15:37;;;;;;;6.90;4.77;;;;;;;;;;5068967;28;20476;-84
2021/03/05 05:18:04;;;;;;;8.53;5.17;;;;;;;;;;5081714;28;20526;-83
2021/03/05 05:20:30;;;;;;;9.43;5.40;;;;;;;;;;5078425;28;20457;-84
2021/03/05 05:22:56;;;;;;;11.83;7.07;;;;;;;;;;5060436;28;20512;-84
2021/03/05 05:25:22;;;;;;;11.57;6.20;;;;;;;;;;5058355;28;20429;-84
2021/03/05 05:27:48;;;;;;;11.63;8.50;;;;;;;;;;5078761;28;20395;-84
2021/03/05 05:30:14;;;;;;;13.40;8.33;;;;;;;;;;5077265;28;20437;-85
2021/03/05 05:32:40;;;;;;;14.10;9.57;;;;;;;;;;5078567;28;20434;-84
2021/03/05 05:35:06;;;;;;;13.43;9.37;;;;;;;;;;5077545;28;20507;-83
2021/03/05 05:37:32;;;;;;;15.70;9.07;;;;;;;;;;5077849;28;20414;-84
2021/03/05 05:39:58;;;;;;;16.00;9.93;;;;;;;;;;5076967;28;20482;-85
2021/03/05 05:42:24;;;;;;;20.27;10.90;;;;;;;;;;5078703;28;20499;-84
2021/03/05 05:44:50;;;;;;;16.70;11.00;;;;;;;;;;5077072;28;20431;-84
2021/03/05 05:47:17;;;;;;;20.60;11.53;;;;;;;;;;5077395;28;20440;-85
2021/03/05 05:49:44;;;;;;;20.17;10.37;;;;;;;;;;5058500;28;20445;-85
2021/03/05 05:52:12;;;;;;;19.07;9.60;;;;;;;;;;5077017;28;20927;-84
2021/03/05 05:54:40;;;;;;;21.80;11.10;;;;;;;;;;5075453;28;20926;-84
2021/03/05 05:57:06;;;;;;;24.27;12.20;;;;;;;;;;5075574;28;20431;-84
2021/03/05 05:59:32;;;;;;;19.03;12.10;;;;;;;;;;5095987;22;20485;-73
2021/03/05 06:01:58;;;;;;;18.17;10.77;;;;;;;;;;5094106;28;20450;-72
2021/03/05 06:04:24;;;;;;;20.50;11.60;;;;;;;;;;5094888;28;20481;-73
2021/03/05 06:06:50;;;;;;;14.77;9.07;;;;;;;;;;5094996;28;20487;-73
2021/03/05 06:09:16;;;;;;;19.07;9.27;;;;;;;;;;5094003;28;20969;-72
2021/03/05 06:11:43;;;;;;;16.80;8.97;;;;;;;;;;5094744;28;20415;-72
2021/03/05 06:14:10;;;;;;;16.60;8.98;;;;;;;;;;5083242;28;20418;-73
2021/03/05 06:16:36;;;;;;;16.17;9.60;;;;;;;;;;5083237;28;20169;-73
2021/03/05 06:19:17;;;;;;;13.80;7.30;;;;;;;;;;5092731;28;20425;-72
2021/03/05 06:21:43;;;;;;;10.73;7.93;;;;;;;;;;5097456;28;20434;-73
2021/03/05 06:24:09;;;;;;;14.30;8.00;;;;;;;;;;5084466;28;20877;-73
2021/03/05 06:26:48;;;;;;;13.77;8.03;;;;;;;;;;5102340;28;20397;-73
2021/03/05 06:29:15;;;;;;;16.50;9.07;;;;;;;;;;5095339;28;20457;-72
2021/03/05 06:31:42;;;;;;;13.60;7.70;;;;;;;;;;5089434;28;20441;-72
2021/03/05 06:34:08;;;;;;;14.87;8.27;;;;;;;;;;5095103;28;20469;-72
2021/03/05 06:36:34;;;;;;;16.60;8.10;;;;;;;;;;5089901;28;20402;-71
2021/03/05 06:39:00;;;;;;;10.43;6.83;;;;;;;;;;5085989;28;20933;-72
2021/03/05 06:41:35;;;;;;;12.40;7.17;;;;;;;;;;5085690;28;20508;-71
2021/03/05 06:44:01;;;;;;;12.07;7.57;;;;;;;;;;5080837;28;20434;-72
2021/03/05 06:46:35;;;;;;;12.00;6.93;;;;;;;;;;5079882;28;20766;-72
2021/03/05 06:49:11;;;;;;;11.73;7.20;;;;;;;;;;5088220;28;20421;-72
2021/03/05 06:51:37;;;;;;;13.33;7.70;;;;;;;;;;5084689;28;20476;-71
2021/03/05 06:54:14;;;;;;;10.13;6.63;;;;;;;;;;5083248;28;20471;-72
2021/03/05 06:56:41;;;;;;;13.77;8.90;;;;;;;;;;5088726;28;20406;-77
2021/03/05 06:59:10;;;;;;;13.07;7.60;;;;;;;;;;5084843;28;20435;-75
2021/03/05 07:01:56;;;;;;;14.60;9.20;;;;;;;;;;5085859;28;20507;-74
2021/03/05 07:04:23;;;;;;;14.83;9.23;;;;;;;;;;5091095;28;20507;-77
2021/03/05 07:07:00;;;;;;;10.30;7.80;;;;;;;;;;5075590;28;20443;-76
2021/03/05 07:09:30;;;;;;;12.17;7.53;;;;;;;;;;5096546;28;20430;-75
2021/03/05 07:11:57;;;;;;;9.83;6.20;;;;;;;;;;5094381;28;20475;-75
2021/03/05 07:14:31;;;;;;;11.13;6.83;;;;;;;;;;5092452;28;20481;-71
2021/03/05 07:16:57;;;;;;;13.10;7.80;;;;;;;;;;5082929;28;20428;-71
2021/03/05 07:19:25;;;;;;;11.70;6.97;;;;;;;;;;5093243;28;20863;-73
2021/03/05 07:21:52;;;;;;;11.93;8.07;;;;;;;;;;5073320;28;20926;-75
2021/03/05 07:24:19;;;;;;;12.98;8.40;;;;;;;;;;5087545;28;20756;-75
2021/03/05 07:27:01;;;;;;;11.90;7.67;;;;;;;;;;5097538;28;20180;-76
2021/03/05 07:29:29;;;;;;;13.77;9.48;;;;;;;;;;5071723;28;20427;-76
2021/03/05 07:32:00;;;;;;;14.80;9.27;;;;;;;;;;5092170;28;20665;-75
2021/03/05 07:34:27;;;;;;;11.93;8.53;;;;;;;;;;5090837;28;20818;-73
2021/03/05 07:36:55;;;;;;;13.67;8.10;;;;;;;;;;5093691;28;20488;-73
2021/03/05 07:39:24;;;;;;;14.50;8.73;;;;;;;;;;5074560;28;20880;-73
2021/03/05 07:41:51;;;;;;;13.03;7.63;;;;;;;;;;5093442;28;20464;-73
2021/03/05 07:44:17;;;;;;;14.47;8.10;;;;;;;;;;5091913;28;20932;-74
2021/03/05 07:46:44;;;;;;;8.93;6.87;;;;;;;;;;5091159;28;20435;-74
2021/03/05 07:49:10;;;;;;;8.87;6.67;;;;;;;;;;5090858;28;20426;-73
2021/03/05 07:51:37;;;;;;;9.20;5.60;;;;;;;;;;5078803;28;21136;-72
2021/03/05 07:54:05;;;;;;;6.67;4.33;;;;;;;;;;5081771;28;20453;-73
2021/03/05 07:56:57;;;;;;;6.57;4.20;;;;;;;;;;5081088;28;20455;-72
2021/03/05 07:59:45;;;;;;;6.60;4.07;;;;;;;;;;5074143;28;20548;-73
2021/03/05 08:02:15;;;;;;;6.43;4.43;;;;;;;;;;5076565;28;20477;-73
2021/03/05 08:04:50;;;;;;;5.80;3.90;;;;;;;;;;5082532;28;20426;-72
2021/03/05 08:07:17;;;;;;;6.47;3.90;;;;;;;;;;5089087;28;20429;-73
2021/03/05 08:09:43;;;;;;;6.57;4.53;;;;;;;;;;5085720;28;20418;-74
2021/03/05 08:15:09;;;;;;;4.50;3.20;;;;;;;;;;5085722;28;20502;-74
2021/03/05 08:17:35;;;;;;;5.17;3.87;;;;;;;;;;5089863;28;20423;-74
2021/03/05 08:20:03;;;;;;;5.57;3.73;;;;;;;;;;5090760;28;20545;-74
2021/03/05 08:22:31;;;;;;;4.90;3.40;;;;;;;;;;5088345;28;20452;-74
2021/03/05 08:25:15;;;;;;;4.57;3.43;;;;;;;;;;5094505;28;20435;-74
2021/03/05 08:27:41;;;;;;;6.30;4.23;;;;;;;;;;5096540;28;20403;-74
2021/03/05 08:30:13;;;;;;;5.50;3.70;;;;;;;;;;5093032;28;20426;-74
2021/03/05 08:32:56;;;;;;;6.30;4.27;;;;;;;;;;5088845;28;20429;-74
2021/03/05 08:35:31;;;;;;;6.37;4.13;;;;;;;;;;5094272;28;20426;-74
2021/03/05 08:37:57;;;;;;;9.00;4.53;;;;;;;;;;5085423;28;20424;-74
2021/03/05 08:40:25;;;;;;;6.63;5.30;;;;;;;;;;5091815;28;20790;-74
2021/03/05 08:42:51;;;;;;;8.47;4.90;;;;;;;;;;5118288;22;20491;-69
2021/03/05 08:45:23;;;;;;;7.33;5.17;;;;;;;;;;5093743;28;20420;-68
2021/03/05 08:47:50;;;;;;;6.50;4.60;;;;;;;;;;5084695;28;20826;-68
2021/03/05 08:50:18;;;;;;;7.90;5.67;;;;;;;;;;5091743;28;20485;-68
2021/03/05 08:52:45;;;;;;;7.63;5.73;;;;;;;;;;5076438;28;20442;-69
2021/03/05 08:55:12;;;;;;;7.50;5.00;;;;;;;;;;5094033;28;20433;-74
2021/03/05 08:57:39;;;;;;;10.37;5.73;;;;;;;;;;5094465;28;20507;-69
2021/03/05 09:00:05;;;;;;;9.67;6.10;;;;;;;;;;5093280;28;20495;-69
2021/03/05 09:02:31;;;;;;;9.47;5.97;;;;;;;;;;5094298;28;20770;-69
2021/03/05 09:04:57;;;;;;;10.30;6.73;;;;;;;;;;5093886;28;20508;-68
2021/03/05 09:07:23;;;;;;;12.03;6.60;;;;;;;;;;5074192;28;20505;-69
2021/03/05 09:09:52;;;;;;;10.97;7.27;;;;;;;;;;5091708;28;20512;-69
2021/03/05 09:12:21;;;;;;;10.70;6.33;;;;;;;;;;5091570;28;20483;-69
2021/03/05 09:14:48;;;;;;;12.23;7.47;;;;;;;;;;5084726;28;21824;-69
2021/03/05 09:17:15;;;;;;;9.17;6.17;;;;;;;;;;5094299;28;20557;-69
2021/03/05 09:19:41;;;;;;;9.27;6.77;;;;;;;;;;5090243;28;20450;-69
2021/03/05 09:22:17;;;;;;;11.37;7.43;;;;;;;;;;5095157;28;20462;-68
2021/03/05 09:25:06;;;;;;;11.73;5.83;;;;;;;;;;5092363;28;20837;-69
2021/03/05 09:27:35;;;;;;;9.70;6.03;;;;;;;;;;5073254;28;21168;-69
2021/03/05 09:30:14;;;;;;;9.30;6.30;;;;;;;;;;5090805;28;20494;-69
2021/03/05 09:32:47;;;;;;;11.50;6.90;;;;;;;;;;5094346;28;20819;-69
2021/03/05 09:35:13;;;;;;;11.80;7.70;;;;;;;;;;5091015;28;20436;-69
2021/03/05 09:37:39;;;;;;;14.40;7.80;;;;;;;;;;5092312;28;20421;-69
2021/03/05 09:40:07;;;;;;;12.70;8.37;;;;;;;;;;5073685;28;20461;-67
2021/03/05 09:42:47;;;;;;;14.03;8.07;;;;;;;;;;5093731;28;20454;-69
2021/03/05 09:45:14;;;;;;;12.80;7.70;;;;;;;;;;5093198;28;20474;-69
2021/03/05 09:47:47;;;;;;;13.23;7.10;;;;;;;;;;5092401;28;20475;-69
2021/03/05 09:50:18;;;;;;;10.20;6.07;;;;;;;;;;5071882;28;20426;-69
2021/03/05 09:52:44;;;;;;;8.40;5.57;;;;;;;;;;5091584;28;20472;-68
2021/03/05 09:55:10;;;;;;;9.00;6.20;;;;;;;;;;5089136;28;20437;-69
2021/03/05 09:57:39;;;;;;;11.17;6.30;;;;;;;;;;5073829;28;20429;-68
2021/03/05 10:00:05;;;;;;;9.87;6.07;;;;;;;;;;5091758;28;20451;-69
2021/03/05 10:02:36;;;;;;;10.53;5.70;;;;;;;;;;5071070;28;20429;-69
2021/03/05 10:05:02;;;;;;;10.07;6.30;;;;;;;;;;5089672;28;20473;-68
2021/03/05 10:07:28;;;;;;;7.37;4.77;;;;;;;;;;5093441;28;20405;-70
2021/03/05 10:10:07;;;;;;;8.53;5.10;;;;;;;;;;5091912;28;20429;-69
2021/03/05 10:12:33;;;;;;;9.00;5.07;;;;;;;;;;5088907;28;20787;-69
2021/03/05 10:15:06;;;;;;;10.33;5.60;;;;;;;;;;5087792;28;20419;-69
2021/03/05 10:17:38;;;;;;;10.07;5.40;;;;;;;;;;5088736;28;20418;-69
2021/03/05 10:20:05;;;;;;;10.70;6.23;;;;;;;;;;5091667;28;20552;-69
2021/03/05 10:22:32;;;;;;;15.90;7.40;;;;;;;;;;5092077;28;20511;-68
2021/03/05 10:24:58;;;;;;;16.00;6.73;;;;;;;;;;5088597;28;20435;-68
2021/03/05 10:27:24;;;;;;;11.47;6.10;;;;;;;;;;5092166;28;20423;-68
2021/03/05 10:29:51;;;;;;;14.37;8.30;;;;;;;;;;5089305;28;20533;-68
2021/03/05 10:32:27;;;;;;;15.00;8.40;;;;;;;;;;5064657;28;20443;-70
2021/03/05 10:34:54;;;;;;;18.00;9.37;;;;;;;;;;5073752;28;20440;-68
2021/03/05 10:37:21;;;;;;;15.30;9.73;;;;;;;;;;5092970;28;20433;-69
2021/03/05 10:39:48;;;;;;;16.13;7.97;;;;;;;;;;5090812;28;21011;-70
2021/03/05 10:42:15;;;;;;;18.60;9.00;;;;;;;;;;5091531;28;20453;-69
2021/03/05 10:44:41;;;;;;;15.50;9.50;;;;;;;;;;5091961;28;20455;-69
2021/03/05 10:47:08;;;;;;;17.40;9.10;;;;;;;;;;5089154;28;20891;-69
2021/03/05 10:49:35;;;;;;;22.07;9.40;;;;;;;;;;5061341;28;20434;-69
2021/03/05 10:52:01;;;;;;;13.07;8.90;;;;;;;;;;5081847;28;20444;-68
2021/03/05 10:54:27;;;;;;;16.93;10.00;;;;;;;;;;5091459;28;20520;-71
2021/03/05 10:56:54;;;;;;;17.10;8.73;;;;;;;;;;5073578;28;20418;-68
2021/03/05 10:59:20;;;;;;;17.13;9.97;;;;;;;;;;5090895;28;20462;-69
2021/03/05 11:01:47;;;;;;;18.90;9.67;;;;;;;;;;5072675;28;21051;-69
2021/03/05 11:04:16;;;;;;;14.90;8.90;;;;;;;;;;5083131;28;20421;-69
2021/03/05 11:06:42;;;;;;;17.07;8.80;;;;;;;;;;5088888;28;20426;-69
2021/03/05 11:09:08;;;;;;;18.27;9.93;;;;;;;;;;5090434;28;20433;-69
2021/03/05 11:11:35;;;;;;;18.13;9.90;;;;;;;;;;5089847;28;20529;-69
2021/03/05 11:14:01;;;;;;;16.10;9.07;;;;;;;;;;5072308;28;21054;-69
2021/03/05 11:16:27;;;;;;;14.17;7.70;;;;;;;;;;5090604;28;20472;-69
2021/03/05 11:18:53;;;;;;;15.30;9.27;;;;;;;;;;5091131;28;20422;-69
2021/03/05 11:21:19;;;;;;;16.50;8.57;;;;;;;;;;5090676;28;20455;-69
2021/03/05 11:23:45;;;;;;;18.43;9.00;;;;;;;;;;5089102;28;20441;-69
2021/03/05 11:26:12;;;;;;;16.40;8.17;;;;;;;;;;5089607;28;20928;-69
2021/03/05 11:28:39;;;;;;;19.00;8.60;;;;;;;;;;5089775;28;20422;-72
2021/03/05 11:31:05;;;;;;;12.53;7.57;;;;;;;;;;5086334;28;20438;-69
2021/03/05 11:33:31;;;;;;;16.90;7.77;;;;;;;;;;5071298;28;20542;-69
2021/03/05 11:35:57;;;;;;;13.70;8.10;;;;;;;;;;5069138;28;20430;-69
2021/03/05 11:38:23;;;;;;;16.50;7.97;;;;;;;;;;5072918;28;20416;-68
2021/03/05 11:40:49;;;;;;;13.43;8.23;;;;;;;;;;5086439;28;20480;-69
2021/03/05 11:43:15;;;;;;;16.27;8.03;;;;;;;;;;5089490;28;20554;-69
2021/03/05 11:45:41;;;;;;;13.87;8.53;;;;;;;;;;5082831;28;20949;-68
2021/03/05 11:48:07;;;;;;;12.30;7.20;;;;;;;;;;5084717;28;20442;-69
2021/03/05 11:50:33;;;;;;;15.23;7.40;;;;;;;;;;5090717;28;20429;-69
2021/03/05 11:52:59;;;;;;;11.47;6.57;;;;;;;;;;5090824;28;20448;-69
2021/03/05 11:55:25;;;;;;;14.50;7.17;;;;;;;;;;5090673;28;20440;-70
2021/03/05 11:57:52;;;;;;;13.13;7.00;;;;;;;;;;5075941;28;20452;-70
2021/03/05 12:00:18;;;;;;;12.43;7.00;;;;;;;;;;5058627;28;20726;-70
2021/03/05 12:02:44;;;;;;;14.63;8.50;;;;;;;;;;5085005;28;20533;-72
2021/03/05 12:05:10;;;;;;;10.03;7.00;;;;;;;;;;5090237;28;20453;-71
2021/03/05 12:07:36;;;;;;;15.53;8.30;;;;;;;;;;5079491;28;20419;-71
2021/03/05 12:10:03;;;;;;;17.13;8.30;;;;;;;;;;5089810;28;20566;-71
2021/03/05 12:12:29;;;;;;;9.27;5.30;;;;;;;;;;5090325;28;20435;-71
2021/03/05 12:14:55;;;;;;;10.27;6.27;;;;;;;;;;5076608;28;20414;-71
2021/03/05 12:17:21;;;;;;;6.67;5.00;;;;;;;;;;5088169;28;20914;-71
2021/03/05 12:19:47;;;;;;;10.40;5.97;;;;;;;;;;5092135;28;20413;-71
2021/03/05 12:22:13;;;;;;;7.53;4.80;;;;;;;;;;5089458;28;20779;-71
2021/03/05 12:24:39;;;;;;;8.57;4.97;;;;;;;;;;5089530;28;20427;-71
2021/03/05 12:27:05;;;;;;;9.90;6.23;;;;;;;;;;5091347;28;20430;-71
2021/03/05 12:29:31;;;;;;;8.67;4.90;;;;;;;;;;5091228;28;20422;-71
2021/03/05 12:31:59;;;;;;;8.70;5.63;;;;;;;;;;5072620;28;20883;-71
2021/03/05 12:34:25;;;;;;;7.67;4.80;;;;;;;;;;5090683;28;20908;-71
2021/03/05 12:36:51;;;;;;;8.83;5.50;;;;;;;;;;5088263;28;20541;-70
2021/03/05 12:39:18;;;;;;;10.90;5.70;;;;;;;;;;5090655;28;20405;-69
2021/03/05 12:41:44;;;;;;;6.80;4.50;;;;;;;;;;5088631;28;20474;-70
2021/03/05 12:44:10;;;;;;;9.70;5.27;;;;;;;;;;5090945;28;20435;-69
2021/03/05 12:46:36;;;;;;;7.87;4.73;;;;;;;;;;5090298;28;20802;-70
2021/03/05 12:49:02;;;;;;;12.40;7.53;;;;;;;;;;5083063;28;20403;-71
2021/03/05 12:51:28;;;;;;;11.00;5.20;;;;;;;;;;5085051;28;20419;-70
2021/03/05 12:53:54;;;;;;;7.57;4.80;;;;;;;;;;5090540;28;20799;-71
2021/03/05 12:56:20;;;;;;;7.70;4.53;;;;;;;;;;5090476;28;20430;-71
2021/03/05 12:58:46;;;;;;;8.37;5.07;;;;;;;;;;5091962;28;20401;-72
2021/03/05 13:01:13;;;;;;;7.00;4.73;;;;;;;;;;5089649;28;20560;-70
2021/03/05 13:03:39;;;;;;;6.10;4.23;;;;;;;;;;5088313;28;20772;-70
2021/03/05 13:06:05;;;;;;;6.77;5.10;;;;;;;;;;5087209;28;20476;-70
2021/03/05 13:08:31;;;;;;;9.60;4.67;;;;;;;;;;5093257;28;20465;-71
2021/03/05 13:10:57;;;;;;;5.13;3.60;;;;;;;;;;5093901;28;20519;-71
2021/03/05 13:13:24;;;;;;;8.00;4.23;;;;;;;;;;5093836;28;20532;-71
2021/03/05 13:15:50;;;;;;;6.50;4.20;;;;;;;;;;5075211;28;20857;-71
2021/03/05 13:18:16;;;;;;;9.80;4.03;;;;;;;;;;5091006;28;20453;-72
2021/03/05 13:20:42;;;;;;;4.83;3.90;;;;;;;;;;5091046;28;21068;-71
2021/03/05 13:23:08;;;;;;;8.40;4.90;;;;;;;;;;5095154;28;20429;-71
2021/03/05 13:25:35;;;;;;;6.97;4.50;;;;;;;;;;5090839;28;20493;-71
2021/03/05 13:28:02;;;;;;;8.40;4.20;;;;;;;;;;5093085;28;20914;-70
2021/03/05 13:30:28;;;;;;;8.30;4.70;;;;;;;;;;5093314;28;20407;-69
2021/03/05 13:32:54;;;;;;;8.27;4.60;;;;;;;;;;5094532;28;20442;-70
2021/03/05 13:35:21;;;;;;;7.63;5.07;;;;;;;;;;5092163;28;20847;-71
2021/03/05 13:37:47;;;;;;;8.40;4.20;;;;;;;;;;5083336;28;20517;-71
2021/03/05 13:40:13;;;;;;;6.57;4.47;;;;;;;;;;5087837;28;20875;-71
2021/03/05 13:42:39;;;;;;;9.03;4.90;;;;;;;;;;5085896;28;20466;-72
2021/03/05 13:45:06;;;;;;;6.30;4.10;;;;;;;;;;5089597;28;20429;-71
2021/03/05 13:47:32;;;;;;;6.50;4.27;;;;;;;;;;5096998;28;20433;-71
2021/03/05 13:49:58;;;;;;;8.20;4.10;;;;;;;;;;5098399;28;20439;-71
2021/03/05 13:52:24;;;;;;;7.23;4.00;;;;;;;;;;5091137;28;20453;-71
2021/03/05 13:54:51;;;;;;;9.83;4.33;;;;;;;;;;5091646;28;20477;-71
2021/03/05 13:57:17;;;;;;;10.37;4.70;;;;;;;;;;5087298;28;20688;-70
2021/03/05 13:59:43;;;;;;;6.73;4.07;;;;;;;;;;5095667;28;21233;-71
2021/03/05 14:02:09;;;;;;;6.80;4.63;;;;;;;;;;5102822;28;20537;-71
2021/03/05 14:04:36;;;;;;;7.50;4.47;;;;;;;;;;5087468;28;20516;-71
2021/03/05 14:07:02;;;;;;;7.00;4.20;;;;;;;;;;5086468;28;20415;-70
2021/03/05 14:09:28;;;;;;;7.27;4.30;;;;;;;;;;5087363;28;20414;-72
2021/03/05 14:11:54;;;;;;;6.90;4.20;;;;;;;;;;5082890;28;20513;-72
2021/03/05 14:14:20;;;;;;;8.00;4.30;;;;;;;;;;5088292;28;20858;-72
2021/03/05 14:16:46;;;;;;;6.73;4.20;;;;;;;;;;5089543;28;20503;-70
2021/03/05 14:19:12;;;;;;;7.57;4.50;;;;;;;;;;5109232;28;20515;-70
2021/03/05 14:21:38;;;;;;;7.03;4.00;;;;;;;;;;5073612;28;20557;-70
2021/03/05 14:24:04;;;;;;;7.40;4.37;;;;;;;;;;5092138;28;20433;-70
2021/03/05 14:26:30;;;;;;;7.97;4.53;;;;;;;;;;5091940;28;20795;-70
2021/03/05 14:28:56;;;;;;;7.67;4.00;;;;;;;;;;5092317;28;20424;-71
2021/03/05 14:31:22;;;;;;;10.93;4.23;;;;;;;;;;5083439;28;20437;-71
2021/03/05 14:33:48;;;;;;;7.27;4.50;;;;;;;;;;5089375;28;20441;-71
2021/03/05 14:36:14;;;;;;;7.20;4.73;;;;;;;;;;5092635;28;20483;-71
2021/03/05 14:38:40;;;;;;;8.13;4.93;;;;;;;;;;5101447;28;20410;-71
2021/03/05 14:41:06;;;;;;;10.50;5.77;;;;;;;;;;5091311;28;20464;-71
2021/03/05 14:43:32;;;;;;;11.50;5.80;;;;;;;;;;5079118;28;20463;-71